createdAt,value
2019-03-27T00:02:10.710Z,8.05
2019-03-27T00:04:40.826Z,8.03
2019-03-27T00:07:10.450Z,7.77
2019-03-27T00:09:41.194Z,6.50
2019-03-27T00:12:11.369Z,7.17
2019-03-27T00:14:41.731Z,6.17
2019-03-27T00:17:11.370Z,6.40
2019-03-27T00:19:40.656Z,6.60
2019-03-27T00:22:10.682Z,5.67
2019-03-27T00:24:39.989Z,6.87
2019-03-27T00:27:09.766Z,6.07
2019-03-27T00:29:39.057Z,6.50
2019-03-27T00:32:08.687Z,6.83
2019-03-27T00:34:38.234Z,6.37
2019-03-27T00:37:08.753Z,6.17
2019-03-27T00:39:38.050Z,5.70
2019-03-27T00:42:07.355Z,6.77
2019-03-27T00:44:36.864Z,6.00
2019-03-27T00:47:06.973Z,5.83
2019-03-27T00:49:37.241Z,6.70
2019-03-27T00:52:07.179Z,6.90
2019-03-27T00:54:37.311Z,5.20
2019-03-27T00:57:06.613Z,5.80
2019-03-27T00:59:36.133Z,6.20
2019-03-27T01:02:06.242Z,6.17
2019-03-27T01:04:36.018Z,5.73
2019-03-27T01:07:05.677Z,5.47
2019-03-27T01:09:35.032Z,6.00
2019-03-27T01:12:04.991Z,5.70
2019-03-27T01:14:35.038Z,6.43
2019-03-27T01:17:04.486Z,7.30
2019-03-27T01:19:33.790Z,7.50
2019-03-27T01:22:06.102Z,7.63
2019-03-27T01:24:35.904Z,6.87
2019-03-27T01:27:05.294Z,6.90
2019-03-27T01:29:35.242Z,7.00
2019-03-27T01:32:06.083Z,7.10
2019-03-27T01:34:35.347Z,7.42
2019-03-27T01:37:04.940Z,7.40
2019-03-27T01:39:34.937Z,6.73
2019-03-27T01:42:04.831Z,6.50
2019-03-27T01:44:34.158Z,6.57
2019-03-27T01:47:03.829Z,6.83
2019-03-27T01:49:33.487Z,6.57
2019-03-27T01:52:03.040Z,6.63
2019-03-27T01:54:32.822Z,6.10
2019-03-27T01:57:02.438Z,7.10
2019-03-27T01:59:33.362Z,7.03
2019-03-27T02:02:02.706Z,7.33
2019-03-27T02:04:32.034Z,7.10
2019-03-27T02:07:02.122Z,7.47
2019-03-27T02:09:31.942Z,6.93
2019-03-27T02:12:01.634Z,6.87
2019-03-27T02:14:31.038Z,7.07
2019-03-27T02:17:00.390Z,7.80
2019-03-27T02:19:30.098Z,7.03
2019-03-27T02:21:59.727Z,7.17
2019-03-27T02:24:29.018Z,6.90
2019-03-27T02:26:58.829Z,7.00
2019-03-27T02:29:28.370Z,7.80
2019-03-27T02:31:57.698Z,6.47
2019-03-27T02:34:27.278Z,7.03
2019-03-27T02:36:56.815Z,7.40
2019-03-27T02:39:26.452Z,7.30
2019-03-27T02:41:56.029Z,7.28
2019-03-27T02:44:25.353Z,7.27
2019-03-27T02:46:54.797Z,8.10
2019-03-27T02:49:24.417Z,8.63
2019-03-27T02:51:53.729Z,6.80
2019-03-27T02:54:22.999Z,6.90
2019-03-27T02:56:52.803Z,8.37
2019-03-27T02:59:22.091Z,6.80
2019-03-27T03:01:51.649Z,6.80
2019-03-27T03:04:20.927Z,7.03
2019-03-27T03:06:50.289Z,7.77
2019-03-27T03:09:19.554Z,7.70
2019-03-27T03:11:49.371Z,8.10
2019-03-27T03:14:18.933Z,8.10
2019-03-27T03:16:48.339Z,7.83
2019-03-27T03:19:18.582Z,7.37
2019-03-27T03:21:47.935Z,7.67
2019-03-27T03:24:17.733Z,7.50
2019-03-27T03:26:50.745Z,7.97
2019-03-27T03:29:18.809Z,8.30
2019-03-27T03:31:48.424Z,7.90
2019-03-27T03:34:17.791Z,7.60
2019-03-27T03:36:47.095Z,9.38
2019-03-27T03:39:16.631Z,8.97
2019-03-27T03:41:46.352Z,8.40
2019-03-27T03:44:16.158Z,8.83
2019-03-27T03:46:58.863Z,8.50
2019-03-27T03:49:16.942Z,9.13
2019-03-27T03:51:46.403Z,10.13
2019-03-27T03:54:16.199Z,10.07
2019-03-27T03:56:48.715Z,10.80
2019-03-27T03:59:19.813Z,11.85
2019-03-27T04:01:51.099Z,12.80
2019-03-27T04:04:22.685Z,10.50
2019-03-27T04:06:52.095Z,10.80
2019-03-27T04:09:21.618Z,9.50
2019-03-27T04:11:51.167Z,10.77
2019-03-27T04:14:22.069Z,9.63
2019-03-27T04:16:51.661Z,10.93
2019-03-27T04:19:20.927Z,11.10
2019-03-27T04:21:50.233Z,10.45
2019-03-27T04:24:19.769Z,10.57
2019-03-27T04:26:49.412Z,10.07
2019-03-27T04:29:18.704Z,10.40
2019-03-27T04:31:48.079Z,10.28
2019-03-27T04:34:17.436Z,10.50
2019-03-27T04:36:47.085Z,10.82
2019-03-27T04:39:16.398Z,11.00
2019-03-27T04:41:45.706Z,11.80
2019-03-27T04:44:15.091Z,10.37
2019-03-27T04:46:44.391Z,12.30
2019-03-27T04:49:13.946Z,11.60
2019-03-27T04:51:43.518Z,13.17
2019-03-27T04:54:12.841Z,11.68
2019-03-27T04:56:42.218Z,12.00
2019-03-27T04:59:11.774Z,13.80
2019-03-27T05:01:41.318Z,16.23
2019-03-27T05:04:10.719Z,14.60
2019-03-27T05:06:59.670Z,14.30
2019-03-27T05:09:29.296Z,15.40
2019-03-27T05:11:58.888Z,13.87
2019-03-27T05:14:28.782Z,13.30
2019-03-27T05:16:59.591Z,14.30
2019-03-27T05:19:30.930Z,16.40
2019-03-27T05:22:00.250Z,15.25
2019-03-27T05:24:29.787Z,15.67
2019-03-27T05:26:59.049Z,15.00
2019-03-27T05:29:28.624Z,15.10
2019-03-27T05:31:59.385Z,14.30
2019-03-27T05:34:28.913Z,16.07
2019-03-27T05:36:58.464Z,15.80
2019-03-27T05:39:28.034Z,16.20
2019-03-27T05:41:58.086Z,14.83
2019-03-27T05:44:27.871Z,16.20
2019-03-27T05:46:59.801Z,14.63
2019-03-27T05:49:29.606Z,14.87
2019-03-27T05:51:59.158Z,16.37
2019-03-27T05:54:28.703Z,16.48
2019-03-27T05:56:58.248Z,16.47
2019-03-27T05:59:28.106Z,16.10
2019-03-27T06:01:57.409Z,16.60
2019-03-27T06:04:26.971Z,15.75
2019-03-27T06:06:56.849Z,16.93
2019-03-27T06:09:26.396Z,18.30
2019-03-27T06:11:56.317Z,15.90
2019-03-27T06:14:25.673Z,14.80
2019-03-27T06:16:54.979Z,15.07
2019-03-27T06:19:24.265Z,14.90
2019-03-27T06:21:53.822Z,14.83
2019-03-27T06:24:23.360Z,15.57
2019-03-27T06:26:52.654Z,17.27
2019-03-27T06:29:22.198Z,14.53
2019-03-27T06:31:51.718Z,14.50
2019-03-27T06:34:21.010Z,13.77
2019-03-27T06:36:50.305Z,14.40
2019-03-27T06:39:19.619Z,14.87
2019-03-27T06:41:48.897Z,14.60
2019-03-27T06:44:18.472Z,13.90
2019-03-27T06:46:47.859Z,14.47
2019-03-27T06:49:17.693Z,14.07
2019-03-27T06:52:06.061Z,15.43
2019-03-27T06:54:35.674Z,18.40
2019-03-27T06:57:05.035Z,15.67
2019-03-27T06:59:34.832Z,17.05
2019-03-27T07:02:07.034Z,17.07
2019-03-27T07:04:36.593Z,18.75
2019-03-27T07:07:06.182Z,18.47
2019-03-27T07:09:35.994Z,17.70
2019-03-27T07:12:05.398Z,18.27
2019-03-27T07:14:35.158Z,19.97
2019-03-27T07:17:05.019Z,19.93
2019-03-27T07:19:34.585Z,18.73
2019-03-27T07:22:03.942Z,17.55
2019-03-27T07:24:33.755Z,17.03
2019-03-27T07:27:03.024Z,18.20
2019-03-27T07:29:32.572Z,16.70
2019-03-27T07:32:02.131Z,17.90
2019-03-27T07:34:31.732Z,15.63
2019-03-27T07:37:01.145Z,17.00
2019-03-27T07:39:31.003Z,18.40
2019-03-27T07:42:00.612Z,17.83
2019-03-27T07:44:30.146Z,19.12
2019-03-27T07:46:59.945Z,21.30
2019-03-27T07:49:29.751Z,17.90
2019-03-27T07:51:59.388Z,16.27
2019-03-27T07:54:28.993Z,16.60
2019-03-27T07:56:58.269Z,13.97
2019-03-27T07:59:27.897Z,15.17
2019-03-27T08:01:57.492Z,16.67
2019-03-27T08:04:27.039Z,16.87
2019-03-27T08:06:57.090Z,15.63
2019-03-27T08:09:26.669Z,14.20
2019-03-27T08:11:56.028Z,13.38
2019-03-27T08:14:26.148Z,14.63
2019-03-27T08:16:55.421Z,14.67
2019-03-27T08:19:25.206Z,15.73
2019-03-27T08:21:54.560Z,13.80
2019-03-27T08:24:24.114Z,13.73
2019-03-27T08:26:53.670Z,14.40
2019-03-27T08:29:23.465Z,13.10
2019-03-27T08:31:53.262Z,15.23
2019-03-27T08:34:25.581Z,13.30
2019-03-27T08:36:55.190Z,13.30
2019-03-27T08:39:24.759Z,11.95
2019-03-27T08:41:54.385Z,12.63
2019-03-27T08:44:23.707Z,13.20
2019-03-27T08:46:53.017Z,12.60
2019-03-27T08:49:24.332Z,14.37
2019-03-27T08:51:53.652Z,12.13
2019-03-27T08:54:23.439Z,11.90
2019-03-27T08:56:52.987Z,13.80
2019-03-27T08:59:22.573Z,12.97
2019-03-27T09:01:52.191Z,11.63
2019-03-27T09:04:21.785Z,13.93
2019-03-27T09:06:51.304Z,12.90
2019-03-27T09:09:21.230Z,11.80
2019-03-27T09:11:50.861Z,12.27
2019-03-27T09:14:20.747Z,12.50
2019-03-27T09:16:50.083Z,10.90
2019-03-27T09:19:19.685Z,11.90
2019-03-27T09:21:49.302Z,11.30
2019-03-27T09:24:18.841Z,13.10
2019-03-27T09:26:49.485Z,12.27
2019-03-27T09:29:19.258Z,12.37
2019-03-27T09:31:48.623Z,11.80
2019-03-27T09:34:18.664Z,13.40
2019-03-27T09:36:48.565Z,13.33
2019-03-27T09:39:18.360Z,11.90
2019-03-27T09:41:48.174Z,10.90
2019-03-27T09:44:17.740Z,11.10
2019-03-27T09:46:49.654Z,12.50
2019-03-27T09:49:19.460Z,10.60
2019-03-27T09:51:48.991Z,11.85
2019-03-27T09:54:18.802Z,11.20
2019-03-27T09:56:48.343Z,11.38
2019-03-27T09:59:36.589Z,11.33
2019-03-27T10:02:06.045Z,10.87
2019-03-27T10:04:35.338Z,10.70
2019-03-27T10:07:05.229Z,11.18
2019-03-27T10:09:34.513Z,11.27
2019-03-27T10:12:03.934Z,11.43
2019-03-27T10:14:33.512Z,10.40
2019-03-27T10:17:03.064Z,12.27
2019-03-27T10:19:32.607Z,10.80
2019-03-27T10:22:01.972Z,10.70
2019-03-27T10:24:31.583Z,10.00
2019-03-27T10:27:01.146Z,10.70
2019-03-27T10:29:30.439Z,10.10
2019-03-27T10:31:59.749Z,10.70
2019-03-27T10:34:29.572Z,9.48
2019-03-27T10:36:59.230Z,9.20
2019-03-27T10:39:28.528Z,8.50
2019-03-27T10:41:58.086Z,9.27
2019-03-27T10:44:28.902Z,8.57
2019-03-27T10:46:59.396Z,10.73
2019-03-27T10:49:29.641Z,10.20
2019-03-27T10:52:00.818Z,9.53
2019-03-27T10:54:30.634Z,8.43
2019-03-27T10:57:00.178Z,7.70
2019-03-27T10:59:29.950Z,8.53
2019-03-27T11:01:59.485Z,8.20
2019-03-27T11:04:32.085Z,8.90
2019-03-27T11:07:01.911Z,8.35
2019-03-27T11:09:31.714Z,8.90
2019-03-27T11:12:01.766Z,8.77
2019-03-27T11:14:37.646Z,9.07
2019-03-27T11:17:02.686Z,9.10
2019-03-27T11:19:33.740Z,8.17
2019-03-27T11:22:03.540Z,7.80
2019-03-27T11:24:32.815Z,8.57
2019-03-27T11:27:02.378Z,7.90
2019-03-27T11:29:33.261Z,7.50
2019-03-27T11:32:02.537Z,8.00
2019-03-27T11:34:32.100Z,8.90
2019-03-27T11:37:01.894Z,7.40
2019-03-27T11:39:31.202Z,7.63
2019-03-27T11:42:00.912Z,7.60
2019-03-27T11:44:30.650Z,6.40
2019-03-27T11:47:18.985Z,6.57
2019-03-27T11:49:48.557Z,6.73
2019-03-27T11:52:18.579Z,6.53
2019-03-27T11:54:50.133Z,7.20
2019-03-27T11:57:19.722Z,7.00
2019-03-27T12:00:00.759Z,5.37
2019-03-27T12:02:30.627Z,6.47
2019-03-27T12:05:01.284Z,6.40
2019-03-27T12:07:31.266Z,5.78
2019-03-27T12:10:01.058Z,5.60
2019-03-27T12:12:30.767Z,6.63
2019-03-27T12:15:00.414Z,5.80
2019-03-27T12:17:29.989Z,6.60
2019-03-27T12:20:00.006Z,6.50
2019-03-27T12:22:29.365Z,6.47
2019-03-27T12:24:59.463Z,5.70
2019-03-27T12:27:30.154Z,5.10
2019-03-27T12:29:59.734Z,4.87
2019-03-27T12:32:29.113Z,5.23
2019-03-27T12:34:58.932Z,5.20
2019-03-27T12:37:28.941Z,5.00
2019-03-27T12:39:58.210Z,5.65
2019-03-27T12:42:33.959Z,5.20
2019-03-27T12:45:03.832Z,5.30
2019-03-27T12:47:33.205Z,6.60
2019-03-27T12:50:02.692Z,4.75
2019-03-27T12:52:32.313Z,6.00
2019-03-27T12:55:02.919Z,5.13
2019-03-27T12:57:32.190Z,5.33
2019-03-27T13:00:02.034Z,6.37
2019-03-27T13:02:31.765Z,5.75
2019-03-27T13:05:01.586Z,6.37
2019-03-27T13:07:34.287Z,7.33
2019-03-27T13:10:04.143Z,6.70
2019-03-27T13:12:35.857Z,6.20
2019-03-27T13:15:05.986Z,7.77
2019-03-27T13:17:35.399Z,6.20
2019-03-27T13:20:05.563Z,4.20
2019-03-27T13:22:38.103Z,4.90
2019-03-27T13:25:06.948Z,5.00
2019-03-27T13:27:38.059Z,4.90
2019-03-27T13:30:07.810Z,6.13
2019-03-27T13:32:37.796Z,4.90
2019-03-27T13:35:08.642Z,5.27
2019-03-27T13:37:38.158Z,3.70
2019-03-27T13:40:08.615Z,3.40
2019-03-27T13:42:38.529Z,3.87
2019-03-27T13:45:09.571Z,3.37
2019-03-27T13:47:39.064Z,3.63
2019-03-27T13:50:12.917Z,3.12
2019-03-27T13:52:43.344Z,3.20
2019-03-27T13:55:13.815Z,3.33
2019-03-27T13:57:43.954Z,3.10
2019-03-27T14:00:16.142Z,3.43
2019-03-27T14:02:45.787Z,3.80
2019-03-27T14:05:16.249Z,3.70
2019-03-27T14:07:45.750Z,4.17
2019-03-27T14:10:15.313Z,2.93
2019-03-27T14:12:45.523Z,3.17
2019-03-27T14:15:16.000Z,3.37
2019-03-27T14:17:45.439Z,3.45
2019-03-27T14:20:15.460Z,3.17
2019-03-27T14:22:45.794Z,3.47
2019-03-27T14:25:15.529Z,4.07
2019-03-27T14:27:45.820Z,3.10
2019-03-27T14:30:17.983Z,3.03
2019-03-27T14:32:47.855Z,3.43
2019-03-27T14:35:17.365Z,3.57
2019-03-27T14:37:46.670Z,3.00
2019-03-27T14:40:16.626Z,3.20
2019-03-27T14:42:46.005Z,3.73
2019-03-27T14:45:15.787Z,3.22
2019-03-27T14:47:45.241Z,3.67
2019-03-27T14:50:14.953Z,2.92
2019-03-27T14:52:44.870Z,3.07
2019-03-27T14:55:15.034Z,3.20
2019-03-27T14:57:45.033Z,2.77
2019-03-27T15:00:14.852Z,3.10
2019-03-27T15:02:44.142Z,2.30
2019-03-27T15:05:13.630Z,2.57
2019-03-27T15:07:43.221Z,3.20
2019-03-27T15:10:12.580Z,4.10
2019-03-27T15:12:41.933Z,2.65
2019-03-27T15:15:12.140Z,2.83
2019-03-27T15:17:42.243Z,3.10
2019-03-27T15:20:12.068Z,3.27
2019-03-27T15:22:41.858Z,2.77
2019-03-27T15:25:11.820Z,3.33
2019-03-27T15:27:41.631Z,2.83
2019-03-27T15:30:13.521Z,2.77
2019-03-27T15:32:43.824Z,3.03
2019-03-27T15:35:13.269Z,3.03
2019-03-27T15:37:43.075Z,3.20
2019-03-27T15:40:15.106Z,3.50
2019-03-27T15:42:45.361Z,3.47
2019-03-27T15:45:14.747Z,3.33
2019-03-27T15:47:50.539Z,3.27
2019-03-27T15:50:19.853Z,3.00
2019-03-27T15:52:50.992Z,2.60
2019-03-27T15:55:39.507Z,3.30
2019-03-27T15:58:08.886Z,2.63
2019-03-27T16:00:38.851Z,3.00
2019-03-27T16:03:08.527Z,3.23
2019-03-27T16:05:38.454Z,2.83
2019-03-27T16:08:07.885Z,3.40
2019-03-27T16:10:37.477Z,3.87
2019-03-27T16:13:07.183Z,3.07
2019-03-27T16:15:37.358Z,3.67
2019-03-27T16:18:07.290Z,3.20
2019-03-27T16:20:36.630Z,4.33
2019-03-27T16:23:06.223Z,3.40
2019-03-27T16:25:35.626Z,3.50
2019-03-27T16:28:05.219Z,3.77
2019-03-27T16:30:34.764Z,3.17
2019-03-27T16:33:05.922Z,3.20
2019-03-27T16:35:35.472Z,3.30
2019-03-27T16:38:05.647Z,4.00
2019-03-27T16:40:45.237Z,3.60
2019-03-27T16:43:14.782Z,3.20
2019-03-27T16:45:44.143Z,3.97
2019-03-27T16:48:13.605Z,4.60
2019-03-27T16:50:42.879Z,3.83
2019-03-27T16:53:12.406Z,3.67
2019-03-27T16:55:42.471Z,3.90
2019-03-27T16:58:11.915Z,5.33
2019-03-27T17:00:42.175Z,9.23
2019-03-27T17:03:12.852Z,6.60
2019-03-27T17:05:53.357Z,5.80
2019-03-27T17:08:13.461Z,5.00
2019-03-27T17:10:43.273Z,5.80
2019-03-27T17:13:12.541Z,4.57
2019-03-27T17:15:42.106Z,5.60
2019-03-27T17:18:11.732Z,4.10
2019-03-27T17:20:41.593Z,4.28
2019-03-27T17:23:18.079Z,4.03
2019-03-27T17:25:41.956Z,4.00
2019-03-27T17:28:13.887Z,4.17
2019-03-27T17:30:43.259Z,4.50
2019-03-27T17:33:15.037Z,4.30
2019-03-27T17:35:44.319Z,4.20
2019-03-27T17:38:13.630Z,4.10
2019-03-27T17:40:43.777Z,3.77
2019-03-27T17:43:13.583Z,4.50
2019-03-27T17:45:43.348Z,4.17
2019-03-27T17:48:13.018Z,4.60
2019-03-27T17:50:43.028Z,5.90
2019-03-27T17:53:12.546Z,5.90
2019-03-27T17:55:42.107Z,5.90
2019-03-27T17:58:11.973Z,4.93
2019-03-27T18:00:47.752Z,4.10
2019-03-27T18:03:17.390Z,4.37
2019-03-27T18:05:46.993Z,4.10
2019-03-27T18:08:16.713Z,5.03
2019-03-27T18:10:46.447Z,4.70
2019-03-27T18:13:15.811Z,4.73
2019-03-27T18:15:45.509Z,5.03
2019-03-27T18:18:15.421Z,4.90
2019-03-27T18:20:44.737Z,4.63
2019-03-27T18:23:14.291Z,6.07
2019-03-27T18:25:43.628Z,5.67
2019-03-27T18:28:14.319Z,6.22
2019-03-27T18:30:43.834Z,6.00
2019-03-27T18:33:13.218Z,5.22
2019-03-27T18:35:42.509Z,7.30
2019-03-27T18:38:12.447Z,9.95
2019-03-27T18:40:42.403Z,9.40
2019-03-27T18:43:12.528Z,9.70
2019-03-27T18:45:41.888Z,9.27
2019-03-27T18:48:12.149Z,8.03
2019-03-27T18:50:41.712Z,9.40
2019-03-27T18:53:11.735Z,9.37
2019-03-27T18:55:41.734Z,13.30
2019-03-27T18:58:11.358Z,11.10
2019-03-27T19:00:40.749Z,8.13
2019-03-27T19:03:10.097Z,8.73
2019-03-27T19:05:39.793Z,9.00
2019-03-27T19:08:09.065Z,8.40
2019-03-27T19:10:38.664Z,7.87
2019-03-27T19:13:08.532Z,6.50
2019-03-27T19:15:38.919Z,6.70
2019-03-27T19:18:08.296Z,6.37
2019-03-27T19:20:38.395Z,6.00
2019-03-27T19:23:07.715Z,5.50
2019-03-27T19:25:37.262Z,5.83
2019-03-27T19:28:07.165Z,6.30
2019-03-27T19:30:36.714Z,6.00
2019-03-27T19:33:06.279Z,5.90
2019-03-27T19:35:35.655Z,5.23
2019-03-27T19:38:05.139Z,5.37
2019-03-27T19:40:34.518Z,6.70
2019-03-27T19:43:04.493Z,6.60
2019-03-27T19:45:34.345Z,6.77
2019-03-27T19:48:06.333Z,7.60
2019-03-27T19:50:36.165Z,7.07
2019-03-27T19:53:07.750Z,7.53
2019-03-27T19:55:37.081Z,7.57
2019-03-27T19:58:06.518Z,7.40
2019-03-27T20:00:35.851Z,5.80
2019-03-27T20:03:07.346Z,6.00
2019-03-27T20:05:36.639Z,5.67
2019-03-27T20:08:08.250Z,6.10
2019-03-27T20:10:37.945Z,6.80
2019-03-27T20:13:07.263Z,5.50
2019-03-27T20:15:36.725Z,6.67
2019-03-27T20:18:06.577Z,6.60
2019-03-27T20:20:36.203Z,6.70
2019-03-27T20:23:14.892Z,7.20
2019-03-27T20:25:38.406Z,7.10
2019-03-27T20:28:09.836Z,7.90
2019-03-27T20:30:39.597Z,8.77
2019-03-27T20:33:09.135Z,7.35
2019-03-27T20:35:38.417Z,7.00
2019-03-27T20:38:08.037Z,6.17
2019-03-27T20:40:37.593Z,7.30
2019-03-27T20:43:07.259Z,6.40
2019-03-27T20:45:37.175Z,5.90
2019-03-27T20:48:08.354Z,6.70
2019-03-27T20:50:38.135Z,6.37
2019-03-27T20:53:07.739Z,6.00
2019-03-27T20:55:37.294Z,6.67
2019-03-27T20:58:10.202Z,6.40
2019-03-27T21:00:39.748Z,6.12
2019-03-27T21:03:09.338Z,6.17
2019-03-27T21:05:38.981Z,6.13
2019-03-27T21:08:09.764Z,7.13
2019-03-27T21:10:42.434Z,7.08
2019-03-27T21:13:12.699Z,11.00
2019-03-27T21:15:42.575Z,12.30
2019-03-27T21:18:12.326Z,10.87
2019-03-27T21:20:42.124Z,9.87
2019-03-27T21:23:11.721Z,9.10
2019-03-27T21:25:41.333Z,6.80
2019-03-27T21:28:10.876Z,6.10
2019-03-27T21:30:40.670Z,6.10
2019-03-27T21:33:10.278Z,6.20
2019-03-27T21:35:39.576Z,5.17
2019-03-27T21:38:08.895Z,6.20
2019-03-27T21:40:38.213Z,6.40
2019-03-27T21:43:08.095Z,6.13
2019-03-27T21:45:38.641Z,6.03
2019-03-27T21:48:08.838Z,6.60
2019-03-27T21:50:38.153Z,6.67
2019-03-27T21:53:07.884Z,8.00
2019-03-27T21:55:42.608Z,6.60
2019-03-27T21:58:08.746Z,6.43
2019-03-27T22:00:39.794Z,7.50
2019-03-27T22:03:09.482Z,7.10
2019-03-27T22:05:39.025Z,7.20
2019-03-27T22:08:08.986Z,7.00
2019-03-27T22:10:39.858Z,6.23
2019-03-27T22:13:09.459Z,7.07
2019-03-27T22:15:39.103Z,6.60
2019-03-27T22:18:08.469Z,6.73
2019-03-27T22:20:39.588Z,7.47
2019-03-27T22:23:09.126Z,7.12
2019-03-27T22:25:38.572Z,7.57
2019-03-27T22:28:08.382Z,6.80
2019-03-27T22:30:38.159Z,7.87
2019-03-27T22:33:07.687Z,8.00
2019-03-27T22:35:36.993Z,7.47
2019-03-27T22:38:06.245Z,8.87
2019-03-27T22:40:38.571Z,8.03
2019-03-27T22:43:08.124Z,7.90
2019-03-27T22:45:37.675Z,7.97
2019-03-27T22:48:07.274Z,9.53
2019-03-27T22:50:37.402Z,8.30
2019-03-27T22:53:06.938Z,7.20
2019-03-27T22:55:49.084Z,8.20
2019-03-27T22:58:08.795Z,8.00
2019-03-27T23:00:48.363Z,9.30
2019-03-27T23:03:18.925Z,7.70
2019-03-27T23:05:48.558Z,9.03
2019-03-27T23:08:18.189Z,8.43
2019-03-27T23:10:47.498Z,8.18
2019-03-27T23:13:17.495Z,8.03
2019-03-27T23:15:47.146Z,6.80
2019-03-27T23:18:16.682Z,7.47
2019-03-27T23:20:46.209Z,8.07
2019-03-27T23:23:16.631Z,8.00
2019-03-27T23:25:46.233Z,8.60
2019-03-27T23:28:15.505Z,8.03
2019-03-27T23:30:45.311Z,8.10
2019-03-27T23:33:14.926Z,8.38
2019-03-27T23:35:45.663Z,8.77
2019-03-27T23:38:15.264Z,8.63
2019-03-27T23:40:44.533Z,8.70
2019-03-27T23:43:13.803Z,9.50
2019-03-27T23:45:43.195Z,9.40
2019-03-27T23:48:13.049Z,8.10
2019-03-27T23:50:42.807Z,8.30
2019-03-27T23:53:12.098Z,8.80
2019-03-27T23:55:42.094Z,7.67
2019-03-27T23:58:12.647Z,7.53
